sensor_id;sensor_type;location;lat;lon;timestamp;temperature;humidity
41318;DHT22;27067;51.554;7.026;2023-05-10T00:01:23;19.70;99.10
41318;DHT22;27067;51.554;7.026;2023-05-10T00:03:48;19.70;99.10
41318;DHT22;27067;51.554;7.026;2023-05-10T00:06:14;19.60;99.10
41318;DHT22;27067;51.554;7.026;2023-05-10T00:08:39;19.60;99.10
41318;DHT22;27067;51.554;7.026;2023-05-10T00:11:05;19.70;99.20
41318;DHT22;27067;51.554;7.026;2023-05-10T00:13:30;19.60;99.10
41318;DHT22;27067;51.554;7.026;2023-05-10T00:15:56;19.70;99.10
41318;DHT22;27067;51.554;7.026;2023-05-10T00:18:21;19.70;99.10
41318;DHT22;27067;51.554;7.026;2023-05-10T00:20:47;19.60;99.10
41318;DHT22;27067;51.554;7.026;2023-05-10T00:23:14;19.70;99.20
41318;DHT22;27067;51.554;7.026;2023-05-10T00:25:39;19.60;99.10
41318;DHT22;27067;51.554;7.026;2023-05-10T00:28:05;19.60;99.10
41318;DHT22;27067;51.554;7.026;2023-05-10T00:30:30;19.70;99.10
41318;DHT22;27067;51.554;7.026;2023-05-10T00:32:56;19.60;99.10
41318;DHT22;27067;51.554;7.026;2023-05-10T00:35:21;19.70;99.10
41318;DHT22;27067;51.554;7.026;2023-05-10T00:37:47;19.70;99.10
41318;DHT22;27067;51.554;7.026;2023-05-10T00:40:12;19.60;99.10
41318;DHT22;27067;51.554;7.026;2023-05-10T00:42:38;19.60;99.10
41318;DHT22;27067;51.554;7.026;2023-05-10T00:45:04;19.60;99.10
41318;DHT22;27067;51.554;7.026;2023-05-10T00:47:29;19.60;99.10
41318;DHT22;27067;51.554;7.026;2023-05-10T00:49:55;19.60;99.10
41318;DHT22;27067;51.554;7.026;2023-05-10T00:52:21;19.60;99.10
41318;DHT22;27067;51.554;7.026;2023-05-10T00:54:49;19.60;99.10
41318;DHT22;27067;51.554;7.026;2023-05-10T00:57:14;19.60;99.10
41318;DHT22;27067;51.554;7.026;2023-05-10T00:59:40;19.60;99.10
41318;DHT22;27067;51.554;7.026;2023-05-10T01:02:06;19.60;99.10
41318;DHT22;27067;51.554;7.026;2023-05-10T01:04:31;19.60;99.10
41318;DHT22;27067;51.554;7.026;2023-05-10T01:06:58;19.60;99.10
41318;DHT22;27067;51.554;7.026;2023-05-10T01:09:24;19.60;99.10
41318;DHT22;27067;51.554;7.026;2023-05-10T01:11:51;19.60;99.10
41318;DHT22;27067;51.554;7.026;2023-05-10T01:14:18;19.60;99.10
41318;DHT22;27067;51.554;7.026;2023-05-10T01:16:44;19.60;99.10
41318;DHT22;27067;51.554;7.026;2023-05-10T01:19:12;19.60;99.10
41318;DHT22;27067;51.554;7.026;2023-05-10T01:34:37;19.60;99.10
41318;DHT22;27067;51.554;7.026;2023-05-10T01:37:07;19.60;99.10
41318;DHT22;27067;51.554;7.026;2023-05-10T01:42:21;19.60;99.10
41318;DHT22;27067;51.554;7.026;2023-05-10T01:44:50;19.60;99.10
41318;DHT22;27067;51.554;7.026;2023-05-10T01:47:38;19.60;99.00
41318;DHT22;27067;51.554;7.026;2023-05-10T01:50:06;19.60;99.10
41318;DHT22;27067;51.554;7.026;2023-05-10T01:52:41;19.60;99.10
41318;DHT22;27067;51.554;7.026;2023-05-10T01:55:11;19.60;99.00
41318;DHT22;27067;51.554;7.026;2023-05-10T01:57:38;19.60;99.10
41318;DHT22;27067;51.554;7.026;2023-05-10T02:00:05;19.60;99.00
41318;DHT22;27067;51.554;7.026;2023-05-10T02:02:33;19.60;99.00
41318;DHT22;27067;51.554;7.026;2023-05-10T02:05:00;19.60;99.00
41318;DHT22;27067;51.554;7.026;2023-05-10T02:07:26;19.60;99.00
41318;DHT22;27067;51.554;7.026;2023-05-10T02:09:53;19.60;99.00
41318;DHT22;27067;51.554;7.026;2023-05-10T02:12:19;19.60;99.00
41318;DHT22;27067;51.554;7.026;2023-05-10T02:14:45;19.60;99.00
41318;DHT22;27067;51.554;7.026;2023-05-10T02:17:12;19.60;99.00
41318;DHT22;27067;51.554;7.026;2023-05-10T02:19:40;19.60;99.10
41318;DHT22;27067;51.554;7.026;2023-05-10T02:22:05;19.60;99.00
41318;DHT22;27067;51.554;7.026;2023-05-10T02:24:33;19.50;99.00
41318;DHT22;27067;51.554;7.026;2023-05-10T02:27:00;19.60;99.00
41318;DHT22;27067;51.554;7.026;2023-05-10T02:29:27;19.60;99.00
41318;DHT22;27067;51.554;7.026;2023-05-10T02:31:54;19.60;99.00
41318;DHT22;27067;51.554;7.026;2023-05-10T02:34:21;19.60;99.00
41318;DHT22;27067;51.554;7.026;2023-05-10T02:36:47;19.60;99.00
41318;DHT22;27067;51.554;7.026;2023-05-10T02:39:13;19.60;99.00
41318;DHT22;27067;51.554;7.026;2023-05-10T02:41:40;19.60;99.00
41318;DHT22;27067;51.554;7.026;2023-05-10T02:44:06;19.60;99.00
41318;DHT22;27067;51.554;7.026;2023-05-10T02:46:33;19.60;99.00
41318;DHT22;27067;51.554;7.026;2023-05-10T02:48:58;19.50;99.00
41318;DHT22;27067;51.554;7.026;2023-05-10T02:51:25;19.60;99.00
41318;DHT22;27067;51.554;7.026;2023-05-10T02:53:52;19.60;99.00
41318;DHT22;27067;51.554;7.026;2023-05-10T02:56:20;19.50;99.00
41318;DHT22;27067;51.554;7.026;2023-05-10T02:58:47;19.50;99.00
41318;DHT22;27067;51.554;7.026;2023-05-10T03:01:13;19.50;99.00
41318;DHT22;27067;51.554;7.026;2023-05-10T03:03:38;19.50;99.00
41318;DHT22;27067;51.554;7.026;2023-05-10T03:06:04;19.50;99.00
41318;DHT22;27067;51.554;7.026;2023-05-10T03:08:29;19.50;99.00
41318;DHT22;27067;51.554;7.026;2023-05-10T03:11:01;19.50;99.00
41318;DHT22;27067;51.554;7.026;2023-05-10T03:15:57;19.50;99.00
41318;DHT22;27067;51.554;7.026;2023-05-10T03:18:28;19.50;99.00
41318;DHT22;27067;51.554;7.026;2023-05-10T03:21:03;19.50;99.00
41318;DHT22;27067;51.554;7.026;2023-05-10T03:23:44;19.50;99.00
41318;DHT22;27067;51.554;7.026;2023-05-10T03:26:13;19.50;99.00
41318;DHT22;27067;51.554;7.026;2023-05-10T03:28:41;19.50;99.00
41318;DHT22;27067;51.554;7.026;2023-05-10T03:31:06;19.50;99.00
41318;DHT22;27067;51.554;7.026;2023-05-10T03:33:32;19.50;99.00
41318;DHT22;27067;51.554;7.026;2023-05-10T03:35:58;19.50;99.00
41318;DHT22;27067;51.554;7.026;2023-05-10T03:38:23;19.50;99.00
41318;DHT22;27067;51.554;7.026;2023-05-10T03:40:49;19.50;99.00
41318;DHT22;27067;51.554;7.026;2023-05-10T03:43:14;19.50;99.00
41318;DHT22;27067;51.554;7.026;2023-05-10T03:45:40;19.50;99.00
41318;DHT22;27067;51.554;7.026;2023-05-10T03:48:05;19.50;99.00
41318;DHT22;27067;51.554;7.026;2023-05-10T03:50:31;19.50;99.00
41318;DHT22;27067;51.554;7.026;2023-05-10T03:52:57;19.50;99.00
41318;DHT22;27067;51.554;7.026;2023-05-10T03:55:23;19.50;99.00
41318;DHT22;27067;51.554;7.026;2023-05-10T03:57:48;19.50;99.00
41318;DHT22;27067;51.554;7.026;2023-05-10T04:00:14;19.50;99.00
41318;DHT22;27067;51.554;7.026;2023-05-10T04:02:40;19.50;99.00
41318;DHT22;27067;51.554;7.026;2023-05-10T04:05:06;19.50;99.00
41318;DHT22;27067;51.554;7.026;2023-05-10T04:07:31;19.50;99.00
41318;DHT22;27067;51.554;7.026;2023-05-10T04:09:57;19.40;99.00
41318;DHT22;27067;51.554;7.026;2023-05-10T04:12:23;19.50;99.00
41318;DHT22;27067;51.554;7.026;2023-05-10T04:14:48;19.50;99.00
41318;DHT22;27067;51.554;7.026;2023-05-10T04:17:14;19.50;99.00
41318;DHT22;27067;51.554;7.026;2023-05-10T04:19:39;19.40;99.20
41318;DHT22;27067;51.554;7.026;2023-05-10T04:22:05;19.40;99.00
41318;DHT22;27067;51.554;7.026;2023-05-10T04:24:30;19.50;99.00
41318;DHT22;27067;51.554;7.026;2023-05-10T04:26:56;19.40;99.00
41318;DHT22;27067;51.554;7.026;2023-05-10T04:29:21;19.50;99.20
41318;DHT22;27067;51.554;7.026;2023-05-10T04:31:47;19.40;98.90
41318;DHT22;27067;51.554;7.026;2023-05-10T04:34:14;19.50;99.00
41318;DHT22;27067;51.554;7.026;2023-05-10T04:36:39;19.50;99.00
41318;DHT22;27067;51.554;7.026;2023-05-10T04:39:05;19.40;98.90
41318;DHT22;27067;51.554;7.026;2023-05-10T04:41:30;19.40;99.00
41318;DHT22;27067;51.554;7.026;2023-05-10T04:43:56;19.40;98.90
41318;DHT22;27067;51.554;7.026;2023-05-10T04:46:21;19.40;98.90
41318;DHT22;27067;51.554;7.026;2023-05-10T04:48:47;19.40;98.90
41318;DHT22;27067;51.554;7.026;2023-05-10T04:51:13;19.40;98.90
41318;DHT22;27067;51.554;7.026;2023-05-10T04:53:38;19.40;98.90
41318;DHT22;27067;51.554;7.026;2023-05-10T04:56:04;19.40;98.90
41318;DHT22;27067;51.554;7.026;2023-05-10T04:58:30;19.40;98.90
41318;DHT22;27067;51.554;7.026;2023-05-10T05:00:55;19.40;99.00
41318;DHT22;27067;51.554;7.026;2023-05-10T05:03:21;19.40;99.00
41318;DHT22;27067;51.554;7.026;2023-05-10T05:05:47;19.40;99.00
41318;DHT22;27067;51.554;7.026;2023-05-10T05:08:13;19.40;98.90
41318;DHT22;27067;51.554;7.026;2023-05-10T05:10:38;19.40;98.90
41318;DHT22;27067;51.554;7.026;2023-05-10T05:13:04;19.40;98.90
41318;DHT22;27067;51.554;7.026;2023-05-10T05:15:29;19.40;99.00
41318;DHT22;27067;51.554;7.026;2023-05-10T05:17:55;19.30;98.90
41318;DHT22;27067;51.554;7.026;2023-05-10T05:20:21;19.40;98.90
41318;DHT22;27067;51.554;7.026;2023-05-10T05:22:47;19.40;98.90
41318;DHT22;27067;51.554;7.026;2023-05-10T05:25:12;19.40;98.90
41318;DHT22;27067;51.554;7.026;2023-05-10T05:27:38;19.40;98.90
41318;DHT22;27067;51.554;7.026;2023-05-10T05:30:04;19.40;99.20
41318;DHT22;27067;51.554;7.026;2023-05-10T05:32:29;19.40;99.00
41318;DHT22;27067;51.554;7.026;2023-05-10T05:34:55;19.40;99.00
41318;DHT22;27067;51.554;7.026;2023-05-10T05:37:21;19.40;99.00
41318;DHT22;27067;51.554;7.026;2023-05-10T05:39:47;19.40;99.00
41318;DHT22;27067;51.554;7.026;2023-05-10T05:42:13;19.40;98.90
41318;DHT22;27067;51.554;7.026;2023-05-10T05:44:39;19.40;98.90
41318;DHT22;27067;51.554;7.026;2023-05-10T05:47:05;19.30;98.90
41318;DHT22;27067;51.554;7.026;2023-05-10T05:49:31;19.30;98.90
41318;DHT22;27067;51.554;7.026;2023-05-10T05:52:00;19.40;98.90
41318;DHT22;27067;51.554;7.026;2023-05-10T05:54:26;19.40;99.00
41318;DHT22;27067;51.554;7.026;2023-05-10T05:56:56;19.40;99.00
41318;DHT22;27067;51.554;7.026;2023-05-10T05:59:22;19.30;98.90
41318;DHT22;27067;51.554;7.026;2023-05-10T06:01:47;19.40;99.00
41318;DHT22;27067;51.554;7.026;2023-05-10T06:04:13;19.30;98.90
41318;DHT22;27067;51.554;7.026;2023-05-10T06:06:38;19.30;98.90
41318;DHT22;27067;51.554;7.026;2023-05-10T06:09:04;19.30;98.90
41318;DHT22;27067;51.554;7.026;2023-05-10T06:11:29;19.30;98.90
41318;DHT22;27067;51.554;7.026;2023-05-10T06:13:57;19.30;98.90
41318;DHT22;27067;51.554;7.026;2023-05-10T06:16:23;19.60;99.10
41318;DHT22;27067;51.554;7.026;2023-05-10T06:18:49;19.30;99.00
41318;DHT22;27067;51.554;7.026;2023-05-10T06:21:14;19.30;99.00
41318;DHT22;27067;51.554;7.026;2023-05-10T06:23:40;19.30;98.90
41318;DHT22;27067;51.554;7.026;2023-05-10T06:26:05;19.30;99.00
41318;DHT22;27067;51.554;7.026;2023-05-10T06:28:31;19.30;99.00
41318;DHT22;27067;51.554;7.026;2023-05-10T06:30:57;19.30;99.00
41318;DHT22;27067;51.554;7.026;2023-05-10T06:33:23;19.30;99.00
41318;DHT22;27067;51.554;7.026;2023-05-10T06:35:48;19.30;99.00
41318;DHT22;27067;51.554;7.026;2023-05-10T06:38:14;19.30;99.00
41318;DHT22;27067;51.554;7.026;2023-05-10T06:40:43;19.30;99.00
41318;DHT22;27067;51.554;7.026;2023-05-10T06:43:09;19.30;99.00
41318;DHT22;27067;51.554;7.026;2023-05-10T06:45:35;19.30;99.00
41318;DHT22;27067;51.554;7.026;2023-05-10T06:48:00;19.30;99.00
41318;DHT22;27067;51.554;7.026;2023-05-10T06:50:26;19.30;99.00
41318;DHT22;27067;51.554;7.026;2023-05-10T06:52:52;19.30;99.00
41318;DHT22;27067;51.554;7.026;2023-05-10T06:55:18;19.30;99.10
41318;DHT22;27067;51.554;7.026;2023-05-10T06:57:43;19.30;99.00
41318;DHT22;27067;51.554;7.026;2023-05-10T07:00:09;19.40;99.00
41318;DHT22;27067;51.554;7.026;2023-05-10T07:02:35;19.40;98.90
41318;DHT22;27067;51.554;7.026;2023-05-10T07:05:01;19.30;98.80
41318;DHT22;27067;51.554;7.026;2023-05-10T07:07:27;19.40;98.80
41318;DHT22;27067;51.554;7.026;2023-05-10T07:09:54;19.40;99.00
41318;DHT22;27067;51.554;7.026;2023-05-10T07:12:20;19.40;98.70
41318;DHT22;27067;51.554;7.026;2023-05-10T07:14:45;19.40;98.60
41318;DHT22;27067;51.554;7.026;2023-05-10T07:17:12;19.40;98.60
41318;DHT22;27067;51.554;7.026;2023-05-10T07:19:37;19.40;98.60
41318;DHT22;27067;51.554;7.026;2023-05-10T07:22:03;19.40;98.60
41318;DHT22;27067;51.554;7.026;2023-05-10T07:24:29;19.40;98.60
41318;DHT22;27067;51.554;7.026;2023-05-10T07:26:55;19.40;98.60
41318;DHT22;27067;51.554;7.026;2023-05-10T07:29:20;19.40;98.60
41318;DHT22;27067;51.554;7.026;2023-05-10T07:31:46;19.40;98.60
41318;DHT22;27067;51.554;7.026;2023-05-10T07:34:12;19.40;98.60
41318;DHT22;27067;51.554;7.026;2023-05-10T07:36:37;19.40;98.60
41318;DHT22;27067;51.554;7.026;2023-05-10T07:39:03;19.40;98.60
41318;DHT22;27067;51.554;7.026;2023-05-10T07:41:29;19.40;98.60
41318;DHT22;27067;51.554;7.026;2023-05-10T07:43:55;19.40;98.60
41318;DHT22;27067;51.554;7.026;2023-05-10T07:46:20;19.40;98.60
41318;DHT22;27067;51.554;7.026;2023-05-10T07:48:46;19.40;98.60
41318;DHT22;27067;51.554;7.026;2023-05-10T07:51:12;19.40;98.60
41318;DHT22;27067;51.554;7.026;2023-05-10T07:53:38;19.40;98.70
41318;DHT22;27067;51.554;7.026;2023-05-10T07:58:46;19.40;98.70
41318;DHT22;27067;51.554;7.026;2023-05-10T08:01:11;19.30;98.60
41318;DHT22;27067;51.554;7.026;2023-05-10T08:03:37;19.40;98.60
41318;DHT22;27067;51.554;7.026;2023-05-10T08:06:03;19.40;98.60
41318;DHT22;27067;51.554;7.026;2023-05-10T08:08:28;19.40;98.60
41318;DHT22;27067;51.554;7.026;2023-05-10T08:10:54;19.40;98.60
41318;DHT22;27067;51.554;7.026;2023-05-10T08:13:21;19.30;98.60
41318;DHT22;27067;51.554;7.026;2023-05-10T08:15:46;19.30;98.60
41318;DHT22;27067;51.554;7.026;2023-05-10T08:18:12;19.30;98.60
41318;DHT22;27067;51.554;7.026;2023-05-10T08:20:38;19.30;98.60
41318;DHT22;27067;51.554;7.026;2023-05-10T08:23:04;19.40;98.70
41318;DHT22;27067;51.554;7.026;2023-05-10T08:25:29;19.40;98.60
41318;DHT22;27067;51.554;7.026;2023-05-10T08:27:55;19.30;98.60
41318;DHT22;27067;51.554;7.026;2023-05-10T08:30:21;19.30;98.90
41318;DHT22;27067;51.554;7.026;2023-05-10T08:32:46;19.30;98.70
41318;DHT22;27067;51.554;7.026;2023-05-10T08:35:12;19.30;98.70
41318;DHT22;27067;51.554;7.026;2023-05-10T08:37:37;19.30;98.70
41318;DHT22;27067;51.554;7.026;2023-05-10T08:40:03;19.30;98.70
41318;DHT22;27067;51.554;7.026;2023-05-10T08:42:30;19.30;98.70
41318;DHT22;27067;51.554;7.026;2023-05-10T08:44:59;19.30;98.60
41318;DHT22;27067;51.554;7.026;2023-05-10T08:47:25;19.30;98.60
41318;DHT22;27067;51.554;7.026;2023-05-10T08:49:51;19.30;98.60
41318;DHT22;27067;51.554;7.026;2023-05-10T08:52:18;19.30;98.60
41318;DHT22;27067;51.554;7.026;2023-05-10T08:54:44;19.30;98.70
41318;DHT22;27067;51.554;7.026;2023-05-10T08:57:10;19.30;98.90
41318;DHT22;27067;51.554;7.026;2023-05-10T08:59:36;19.30;98.70
41318;DHT22;27067;51.554;7.026;2023-05-10T09:02:05;19.30;98.70
41318;DHT22;27067;51.554;7.026;2023-05-10T09:04:31;19.30;98.70
41318;DHT22;27067;51.554;7.026;2023-05-10T09:06:57;19.30;98.70
41318;DHT22;27067;51.554;7.026;2023-05-10T09:09:24;19.30;98.70
41318;DHT22;27067;51.554;7.026;2023-05-10T09:11:51;19.30;98.70
41318;DHT22;27067;51.554;7.026;2023-05-10T09:14:17;19.30;98.70
41318;DHT22;27067;51.554;7.026;2023-05-10T09:16:44;19.30;98.70
41318;DHT22;27067;51.554;7.026;2023-05-10T09:19:10;19.30;98.70
41318;DHT22;27067;51.554;7.026;2023-05-10T09:21:36;19.30;98.60
41318;DHT22;27067;51.554;7.026;2023-05-10T09:24:07;19.30;98.60
41318;DHT22;27067;51.554;7.026;2023-05-10T09:26:33;19.30;98.60
41318;DHT22;27067;51.554;7.026;2023-05-10T09:29:00;19.30;98.60
41318;DHT22;27067;51.554;7.026;2023-05-10T09:31:44;19.30;98.60
41318;DHT22;27067;51.554;7.026;2023-05-10T09:34:16;19.30;98.60
41318;DHT22;27067;51.554;7.026;2023-05-10T09:36:56;19.30;98.60
41318;DHT22;27067;51.554;7.026;2023-05-10T09:41:58;19.30;98.60
41318;DHT22;27067;51.554;7.026;2023-05-10T09:44:26;19.30;98.60
41318;DHT22;27067;51.554;7.026;2023-05-10T09:46:51;19.30;98.60
41318;DHT22;27067;51.554;7.026;2023-05-10T09:49:19;19.30;98.60
41318;DHT22;27067;51.554;7.026;2023-05-10T09:51:46;19.30;98.60
41318;DHT22;27067;51.554;7.026;2023-05-10T09:54:16;19.30;98.60
41318;DHT22;27067;51.554;7.026;2023-05-10T09:56:42;19.30;98.60
41318;DHT22;27067;51.554;7.026;2023-05-10T09:59:11;19.30;98.60
41318;DHT22;27067;51.554;7.026;2023-05-10T10:01:37;19.30;98.60
41318;DHT22;27067;51.554;7.026;2023-05-10T10:04:05;19.30;98.70
41318;DHT22;27067;51.554;7.026;2023-05-10T10:06:38;19.30;98.60
41318;DHT22;27067;51.554;7.026;2023-05-10T10:09:05;19.30;98.60
41318;DHT22;27067;51.554;7.026;2023-05-10T10:11:34;19.30;98.60
41318;DHT22;27067;51.554;7.026;2023-05-10T10:14:00;19.30;98.60
41318;DHT22;27067;51.554;7.026;2023-05-10T10:16:28;19.30;98.60
41318;DHT22;27067;51.554;7.026;2023-05-10T10:18:55;19.30;98.60
41318;DHT22;27067;51.554;7.026;2023-05-10T10:21:22;19.30;98.60
41318;DHT22;27067;51.554;7.026;2023-05-10T10:23:47;19.20;98.60
41318;DHT22;27067;51.554;7.026;2023-05-10T10:26:14;19.30;98.60
41318;DHT22;27067;51.554;7.026;2023-05-10T10:29:05;19.30;98.70
41318;DHT22;27067;51.554;7.026;2023-05-10T10:31:40;19.30;98.60
41318;DHT22;27067;51.554;7.026;2023-05-10T10:34:11;19.30;98.60
41318;DHT22;27067;51.554;7.026;2023-05-10T10:36:46;19.30;98.60
41318;DHT22;27067;51.554;7.026;2023-05-10T10:39:12;19.30;98.60
41318;DHT22;27067;51.554;7.026;2023-05-10T10:41:56;19.30;98.60
41318;DHT22;27067;51.554;7.026;2023-05-10T10:44:23;19.30;98.60
41318;DHT22;27067;51.554;7.026;2023-05-10T10:49:38;19.30;98.60
41318;DHT22;27067;51.554;7.026;2023-05-10T10:52:23;19.30;98.60
41318;DHT22;27067;51.554;7.026;2023-05-10T10:54:52;19.30;98.60
41318;DHT22;27067;51.554;7.026;2023-05-10T10:57:19;19.30;98.60
41318;DHT22;27067;51.554;7.026;2023-05-10T10:59:47;19.30;98.60
41318;DHT22;27067;51.554;7.026;2023-05-10T11:08:08;19.20;98.70
41318;DHT22;27067;51.554;7.026;2023-05-10T11:10:34;19.30;98.70
41318;DHT22;27067;51.554;7.026;2023-05-10T11:13:07;19.30;98.70
41318;DHT22;27067;51.554;7.026;2023-05-10T11:15:43;19.30;98.70
41318;DHT22;27067;51.554;7.026;2023-05-10T11:20:43;19.30;98.70
41318;DHT22;27067;51.554;7.026;2023-05-10T11:23:13;19.30;98.70
41318;DHT22;27067;51.554;7.026;2023-05-10T11:25:45;19.20;98.70
41318;DHT22;27067;51.554;7.026;2023-05-10T11:28:14;19.20;98.70
41318;DHT22;27067;51.554;7.026;2023-05-10T11:30:41;19.30;98.70
41318;DHT22;27067;51.554;7.026;2023-05-10T11:33:09;19.20;98.70
41318;DHT22;27067;51.554;7.026;2023-05-10T11:35:39;19.30;98.70
41318;DHT22;27067;51.554;7.026;2023-05-10T11:38:10;19.30;98.70
41318;DHT22;27067;51.554;7.026;2023-05-10T11:40:37;19.20;98.70
41318;DHT22;27067;51.554;7.026;2023-05-10T11:43:03;19.20;98.70
41318;DHT22;27067;51.554;7.026;2023-05-10T11:45:31;19.20;98.70
41318;DHT22;27067;51.554;7.026;2023-05-10T11:47:58;19.30;98.70
41318;DHT22;27067;51.554;7.026;2023-05-10T11:50:24;19.20;98.70
41318;DHT22;27067;51.554;7.026;2023-05-10T11:52:54;19.20;98.70
41318;DHT22;27067;51.554;7.026;2023-05-10T11:55:20;19.20;98.70
41318;DHT22;27067;51.554;7.026;2023-05-10T11:57:47;19.20;98.70
41318;DHT22;27067;51.554;7.026;2023-05-10T12:00:13;19.30;98.70
41318;DHT22;27067;51.554;7.026;2023-05-10T12:02:39;19.20;98.90
41318;DHT22;27067;51.554;7.026;2023-05-10T12:05:05;19.20;98.70
41318;DHT22;27067;51.554;7.026;2023-05-10T12:07:32;19.20;98.70
41318;DHT22;27067;51.554;7.026;2023-05-10T12:10:11;19.20;98.70
41318;DHT22;27067;51.554;7.026;2023-05-10T12:12:46;19.20;98.70
41318;DHT22;27067;51.554;7.026;2023-05-10T12:15:20;19.20;98.70
41318;DHT22;27067;51.554;7.026;2023-05-10T12:17:46;19.20;98.70
41318;DHT22;27067;51.554;7.026;2023-05-10T12:20:20;19.20;98.70
41318;DHT22;27067;51.554;7.026;2023-05-10T12:22:51;19.20;98.70
41318;DHT22;27067;51.554;7.026;2023-05-10T12:25:18;19.20;98.70
41318;DHT22;27067;51.554;7.026;2023-05-10T12:27:55;19.20;98.70
41318;DHT22;27067;51.554;7.026;2023-05-10T12:30:26;19.20;98.70
41318;DHT22;27067;51.554;7.026;2023-05-10T12:32:52;19.20;98.70
41318;DHT22;27067;51.554;7.026;2023-05-10T12:35:18;19.20;98.70
41318;DHT22;27067;51.554;7.026;2023-05-10T12:37:50;19.20;98.70
41318;DHT22;27067;51.554;7.026;2023-05-10T12:40:16;19.20;98.70
41318;DHT22;27067;51.554;7.026;2023-05-10T12:42:41;19.20;98.70
41318;DHT22;27067;51.554;7.026;2023-05-10T12:45:08;19.20;98.70
41318;DHT22;27067;51.554;7.026;2023-05-10T12:47:34;19.20;98.70
41318;DHT22;27067;51.554;7.026;2023-05-10T12:50:01;19.20;98.70
41318;DHT22;27067;51.554;7.026;2023-05-10T12:52:27;19.20;98.70
41318;DHT22;27067;51.554;7.026;2023-05-10T12:54:53;19.20;98.70
41318;DHT22;27067;51.554;7.026;2023-05-10T12:57:20;19.20;98.70
41318;DHT22;27067;51.554;7.026;2023-05-10T12:59:46;19.20;98.70
41318;DHT22;27067;51.554;7.026;2023-05-10T13:02:12;19.20;98.70
41318;DHT22;27067;51.554;7.026;2023-05-10T13:04:38;19.20;98.70
41318;DHT22;27067;51.554;7.026;2023-05-10T13:07:08;19.20;98.70
41318;DHT22;27067;51.554;7.026;2023-05-10T13:09:33;19.20;98.70
41318;DHT22;27067;51.554;7.026;2023-05-10T13:11:59;19.20;98.70
41318;DHT22;27067;51.554;7.026;2023-05-10T13:14:25;19.20;98.70
41318;DHT22;27067;51.554;7.026;2023-05-10T13:16:51;19.20;98.70
41318;DHT22;27067;51.554;7.026;2023-05-10T13:19:17;19.20;98.70
41318;DHT22;27067;51.554;7.026;2023-05-10T13:21:43;19.20;98.70
41318;DHT22;27067;51.554;7.026;2023-05-10T13:24:12;19.20;98.70
41318;DHT22;27067;51.554;7.026;2023-05-10T13:26:43;19.20;98.70
41318;DHT22;27067;51.554;7.026;2023-05-10T13:29:08;19.20;98.70
41318;DHT22;27067;51.554;7.026;2023-05-10T13:31:34;19.20;98.70
41318;DHT22;27067;51.554;7.026;2023-05-10T13:34:00;19.20;98.70
41318;DHT22;27067;51.554;7.026;2023-05-10T13:36:25;19.20;98.70
41318;DHT22;27067;51.554;7.026;2023-05-10T13:38:51;19.20;98.70
41318;DHT22;27067;51.554;7.026;2023-05-10T13:41:17;19.20;98.70
41318;DHT22;27067;51.554;7.026;2023-05-10T13:43:43;19.20;98.80
41318;DHT22;27067;51.554;7.026;2023-05-10T13:46:09;19.30;98.80
41318;DHT22;27067;51.554;7.026;2023-05-10T13:48:34;19.20;98.70
41318;DHT22;27067;51.554;7.026;2023-05-10T13:51:02;19.20;98.60
41318;DHT22;27067;51.554;7.026;2023-05-10T13:53:28;19.30;98.60
41318;DHT22;27067;51.554;7.026;2023-05-10T13:55:54;19.30;98.60
41318;DHT22;27067;51.554;7.026;2023-05-10T13:58:19;19.30;98.60
41318;DHT22;27067;51.554;7.026;2023-05-10T14:00:45;19.30;98.50
41318;DHT22;27067;51.554;7.026;2023-05-10T14:03:11;19.30;98.50
41318;DHT22;27067;51.554;7.026;2023-05-10T14:05:36;19.30;98.50
41318;DHT22;27067;51.554;7.026;2023-05-10T14:08:02;19.30;98.50
41318;DHT22;27067;51.554;7.026;2023-05-10T14:10:29;19.30;98.50
41318;DHT22;27067;51.554;7.026;2023-05-10T14:12:55;19.30;98.50
41318;DHT22;27067;51.554;7.026;2023-05-10T14:15:21;19.30;98.50
41318;DHT22;27067;51.554;7.026;2023-05-10T14:17:46;19.30;98.50
41318;DHT22;27067;51.554;7.026;2023-05-10T14:20:12;19.30;98.50
41318;DHT22;27067;51.554;7.026;2023-05-10T14:22:38;19.20;98.50
41318;DHT22;27067;51.554;7.026;2023-05-10T14:25:04;19.30;98.50
41318;DHT22;27067;51.554;7.026;2023-05-10T14:27:29;19.30;98.60
41318;DHT22;27067;51.554;7.026;2023-05-10T14:29:55;19.30;98.60
41318;DHT22;27067;51.554;7.026;2023-05-10T14:32:21;19.30;98.60
41318;DHT22;27067;51.554;7.026;2023-05-10T14:34:47;19.30;98.60
41318;DHT22;27067;51.554;7.026;2023-05-10T14:37:13;19.20;98.60
41318;DHT22;27067;51.554;7.026;2023-05-10T14:39:40;19.20;98.60
41318;DHT22;27067;51.554;7.026;2023-05-10T14:42:06;19.20;98.60
41318;DHT22;27067;51.554;7.026;2023-05-10T14:44:32;19.20;98.60
41318;DHT22;27067;51.554;7.026;2023-05-10T14:46:58;19.30;98.60
41318;DHT22;27067;51.554;7.026;2023-05-10T14:49:24;19.30;98.60
41318;DHT22;27067;51.554;7.026;2023-05-10T14:51:51;19.20;98.60
41318;DHT22;27067;51.554;7.026;2023-05-10T14:54:17;19.20;98.60
41318;DHT22;27067;51.554;7.026;2023-05-10T14:56:42;19.20;98.60
41318;DHT22;27067;51.554;7.026;2023-05-10T14:59:08;19.20;98.60
41318;DHT22;27067;51.554;7.026;2023-05-10T15:01:34;19.20;98.60
41318;DHT22;27067;51.554;7.026;2023-05-10T15:04:03;19.20;98.60
41318;DHT22;27067;51.554;7.026;2023-05-10T15:06:33;19.20;98.60
41318;DHT22;27067;51.554;7.026;2023-05-10T15:09:00;19.20;98.60
41318;DHT22;27067;51.554;7.026;2023-05-10T15:11:26;19.20;98.70
41318;DHT22;27067;51.554;7.026;2023-05-10T15:13:52;19.30;98.70
41318;DHT22;27067;51.554;7.026;2023-05-10T15:16:17;19.20;98.60
41318;DHT22;27067;51.554;7.026;2023-05-10T15:18:44;19.20;98.70
41318;DHT22;27067;51.554;7.026;2023-05-10T15:21:11;19.20;98.70
41318;DHT22;27067;51.554;7.026;2023-05-10T15:23:36;19.20;98.60
41318;DHT22;27067;51.554;7.026;2023-05-10T15:26:02;19.30;98.60
41318;DHT22;27067;51.554;7.026;2023-05-10T15:28:28;19.20;98.60
41318;DHT22;27067;51.554;7.026;2023-05-10T15:30:54;19.20;98.70
41318;DHT22;27067;51.554;7.026;2023-05-10T15:33:20;19.20;98.70
41318;DHT22;27067;51.554;7.026;2023-05-10T15:35:46;19.20;98.70
41318;DHT22;27067;51.554;7.026;2023-05-10T15:38:12;19.20;98.70
41318;DHT22;27067;51.554;7.026;2023-05-10T15:40:37;19.20;98.70
41318;DHT22;27067;51.554;7.026;2023-05-10T15:43:03;19.20;98.70
41318;DHT22;27067;51.554;7.026;2023-05-10T15:45:30;19.20;98.70
41318;DHT22;27067;51.554;7.026;2023-05-10T15:47:56;19.20;98.70
41318;DHT22;27067;51.554;7.026;2023-05-10T15:50:22;19.20;98.70
41318;DHT22;27067;51.554;7.026;2023-05-10T15:52:47;19.20;98.70
41318;DHT22;27067;51.554;7.026;2023-05-10T15:55:14;19.20;98.70
41318;DHT22;27067;51.554;7.026;2023-05-10T15:57:41;19.20;98.70
41318;DHT22;27067;51.554;7.026;2023-05-10T16:00:08;19.20;98.70
41318;DHT22;27067;51.554;7.026;2023-05-10T16:02:34;19.20;98.70